sensor_id;sensor_type;location;lat;lon;timestamp;temperature;humidity
12446;DHT22;6287;50.984;7.022;2023-07-09T00:01:26;21.70;99.90
12446;DHT22;6287;50.984;7.022;2023-07-09T00:03:51;21.70;99.90
12446;DHT22;6287;50.984;7.022;2023-07-09T00:06:19;21.60;99.90
12446;DHT22;6287;50.984;7.022;2023-07-09T00:08:46;21.60;99.90
12446;DHT22;6287;50.984;7.022;2023-07-09T00:11:14;21.50;99.90
12446;DHT22;6287;50.984;7.022;2023-07-09T00:13:40;21.50;99.90
12446;DHT22;6287;50.984;7.022;2023-07-09T00:16:16;21.40;99.90
12446;DHT22;6287;50.984;7.022;2023-07-09T00:18:46;21.40;99.90
12446;DHT22;6287;50.984;7.022;2023-07-09T00:21:15;21.40;99.90
12446;DHT22;6287;50.984;7.022;2023-07-09T00:23:40;21.40;99.90
12446;DHT22;6287;50.984;7.022;2023-07-09T00:26:12;21.30;99.90
12446;DHT22;6287;50.984;7.022;2023-07-09T00:28:41;21.30;99.90
12446;DHT22;6287;50.984;7.022;2023-07-09T00:31:18;21.30;99.90
12446;DHT22;6287;50.984;7.022;2023-07-09T00:33:44;21.30;99.90
12446;DHT22;6287;50.984;7.022;2023-07-09T00:36:28;21.30;99.90
12446;DHT22;6287;50.984;7.022;2023-07-09T00:38:55;21.20;99.90
12446;DHT22;6287;50.984;7.022;2023-07-09T00:41:26;21.20;99.90
12446;DHT22;6287;50.984;7.022;2023-07-09T00:43:53;21.20;99.90
12446;DHT22;6287;50.984;7.022;2023-07-09T00:48:54;21.10;99.90
12446;DHT22;6287;50.984;7.022;2023-07-09T00:51:27;21.10;99.90
12446;DHT22;6287;50.984;7.022;2023-07-09T00:54:01;21.10;99.90
12446;DHT22;6287;50.984;7.022;2023-07-09T00:56:41;21.10;99.90
12446;DHT22;6287;50.984;7.022;2023-07-09T00:59:13;21.10;99.90
12446;DHT22;6287;50.984;7.022;2023-07-09T01:01:41;21.00;99.90
12446;DHT22;6287;50.984;7.022;2023-07-09T01:04:11;21.00;99.90
12446;DHT22;6287;50.984;7.022;2023-07-09T01:06:48;21.00;99.90
12446;DHT22;6287;50.984;7.022;2023-07-09T01:09:15;21.00;99.90
12446;DHT22;6287;50.984;7.022;2023-07-09T01:11:42;21.00;99.90
12446;DHT22;6287;50.984;7.022;2023-07-09T01:14:14;20.90;99.90
12446;DHT22;6287;50.984;7.022;2023-07-09T01:16:48;20.90;99.90
12446;DHT22;6287;50.984;7.022;2023-07-09T01:19:14;20.90;99.90
12446;DHT22;6287;50.984;7.022;2023-07-09T01:21:44;20.90;99.90
12446;DHT22;6287;50.984;7.022;2023-07-09T01:24:15;20.80;99.90
12446;DHT22;6287;50.984;7.022;2023-07-09T01:26:47;20.80;99.90
12446;DHT22;6287;50.984;7.022;2023-07-09T01:29:13;20.80;99.90
12446;DHT22;6287;50.984;7.022;2023-07-09T01:31:45;20.80;99.90
12446;DHT22;6287;50.984;7.022;2023-07-09T01:34:19;20.80;99.90
12446;DHT22;6287;50.984;7.022;2023-07-09T01:36:47;20.70;99.90
12446;DHT22;6287;50.984;7.022;2023-07-09T01:39:14;20.70;99.90
12446;DHT22;6287;50.984;7.022;2023-07-09T01:41:40;20.70;99.90
12446;DHT22;6287;50.984;7.022;2023-07-09T01:44:08;20.60;99.90
12446;DHT22;6287;50.984;7.022;2023-07-09T01:46:36;20.60;99.90
12446;DHT22;6287;50.984;7.022;2023-07-09T01:49:04;20.60;99.90
12446;DHT22;6287;50.984;7.022;2023-07-09T01:51:33;20.60;99.90
12446;DHT22;6287;50.984;7.022;2023-07-09T01:53:58;20.60;99.90
12446;DHT22;6287;50.984;7.022;2023-07-09T01:56:27;20.60;99.90
12446;DHT22;6287;50.984;7.022;2023-07-09T01:58:58;20.50;99.90
12446;DHT22;6287;50.984;7.022;2023-07-09T02:01:30;20.50;99.90
12446;DHT22;6287;50.984;7.022;2023-07-09T02:04:01;20.50;99.90
12446;DHT22;6287;50.984;7.022;2023-07-09T02:06:29;20.40;99.90
12446;DHT22;6287;50.984;7.022;2023-07-09T02:09:02;20.40;99.90
12446;DHT22;6287;50.984;7.022;2023-07-09T02:11:27;20.30;99.90
12446;DHT22;6287;50.984;7.022;2023-07-09T02:13:55;20.40;99.90
12446;DHT22;6287;50.984;7.022;2023-07-09T02:16:20;20.30;99.90
12446;DHT22;6287;50.984;7.022;2023-07-09T02:18:51;20.40;99.90
12446;DHT22;6287;50.984;7.022;2023-07-09T02:21:21;20.30;99.90
12446;DHT22;6287;50.984;7.022;2023-07-09T02:23:46;20.30;99.90
12446;DHT22;6287;50.984;7.022;2023-07-09T02:26:20;20.30;99.90
12446;DHT22;6287;50.984;7.022;2023-07-09T02:28:45;20.30;99.90
12446;DHT22;6287;50.984;7.022;2023-07-09T02:31:11;20.50;99.90
12446;DHT22;6287;50.984;7.022;2023-07-09T02:33:36;20.20;99.90
12446;DHT22;6287;50.984;7.022;2023-07-09T02:36:02;20.20;99.90
12446;DHT22;6287;50.984;7.022;2023-07-09T02:38:27;20.10;99.90
12446;DHT22;6287;50.984;7.022;2023-07-09T02:40:53;20.20;99.90
12446;DHT22;6287;50.984;7.022;2023-07-09T02:43:19;20.10;99.90
12446;DHT22;6287;50.984;7.022;2023-07-09T02:45:44;20.10;99.90
12446;DHT22;6287;50.984;7.022;2023-07-09T02:48:12;20.10;99.90
12446;DHT22;6287;50.984;7.022;2023-07-09T02:50:37;20.10;99.90
12446;DHT22;6287;50.984;7.022;2023-07-09T02:53:05;20.10;99.90
12446;DHT22;6287;50.984;7.022;2023-07-09T02:55:35;20.00;99.90
12446;DHT22;6287;50.984;7.022;2023-07-09T02:58:03;20.00;99.90
12446;DHT22;6287;50.984;7.022;2023-07-09T03:00:31;20.00;99.90
12446;DHT22;6287;50.984;7.022;2023-07-09T03:03:00;20.00;99.90
12446;DHT22;6287;50.984;7.022;2023-07-09T03:05:25;20.10;99.90
12446;DHT22;6287;50.984;7.022;2023-07-09T03:07:53;20.00;99.90
12446;DHT22;6287;50.984;7.022;2023-07-09T03:10:23;19.90;99.90
12446;DHT22;6287;50.984;7.022;2023-07-09T03:12:49;19.90;99.90
12446;DHT22;6287;50.984;7.022;2023-07-09T03:15:15;19.90;99.90
12446;DHT22;6287;50.984;7.022;2023-07-09T03:17:40;19.80;99.90
12446;DHT22;6287;50.984;7.022;2023-07-09T03:20:06;19.80;99.90
12446;DHT22;6287;50.984;7.022;2023-07-09T03:22:33;19.80;99.90
12446;DHT22;6287;50.984;7.022;2023-07-09T03:24:58;19.70;99.90
12446;DHT22;6287;50.984;7.022;2023-07-09T03:27:24;19.60;99.90
12446;DHT22;6287;50.984;7.022;2023-07-09T03:29:50;19.70;99.90
12446;DHT22;6287;50.984;7.022;2023-07-09T03:32:15;19.70;99.90
12446;DHT22;6287;50.984;7.022;2023-07-09T03:34:43;19.60;99.90
12446;DHT22;6287;50.984;7.022;2023-07-09T03:37:09;19.70;99.90
12446;DHT22;6287;50.984;7.022;2023-07-09T03:39:34;19.80;99.90
12446;DHT22;6287;50.984;7.022;2023-07-09T03:42:02;19.70;99.90
12446;DHT22;6287;50.984;7.022;2023-07-09T03:44:28;19.80;99.90
12446;DHT22;6287;50.984;7.022;2023-07-09T03:46:58;19.80;99.90
12446;DHT22;6287;50.984;7.022;2023-07-09T03:49:29;19.80;99.90
12446;DHT22;6287;50.984;7.022;2023-07-09T03:51:56;19.90;99.90
12446;DHT22;6287;50.984;7.022;2023-07-09T03:54:22;19.80;99.90
12446;DHT22;6287;50.984;7.022;2023-07-09T03:56:48;19.90;99.90
12446;DHT22;6287;50.984;7.022;2023-07-09T03:59:15;19.90;99.90
12446;DHT22;6287;50.984;7.022;2023-07-09T04:01:41;19.90;99.90
12446;DHT22;6287;50.984;7.022;2023-07-09T04:04:12;19.90;99.90
12446;DHT22;6287;50.984;7.022;2023-07-09T04:06:39;20.00;99.90
12446;DHT22;6287;50.984;7.022;2023-07-09T04:09:04;20.00;99.90
12446;DHT22;6287;50.984;7.022;2023-07-09T04:11:30;20.00;99.90
12446;DHT22;6287;50.984;7.022;2023-07-09T04:13:58;20.00;99.90
12446;DHT22;6287;50.984;7.022;2023-07-09T04:16:23;20.10;99.90
12446;DHT22;6287;50.984;7.022;2023-07-09T04:18:49;20.10;99.90
12446;DHT22;6287;50.984;7.022;2023-07-09T04:21:14;20.10;99.90
12446;DHT22;6287;50.984;7.022;2023-07-09T04:23:40;20.10;99.90
12446;DHT22;6287;50.984;7.022;2023-07-09T04:26:12;20.10;99.90
12446;DHT22;6287;50.984;7.022;2023-07-09T04:28:40;20.10;99.90
12446;DHT22;6287;50.984;7.022;2023-07-09T04:31:05;20.20;99.90
12446;DHT22;6287;50.984;7.022;2023-07-09T04:33:31;20.20;99.90
12446;DHT22;6287;50.984;7.022;2023-07-09T04:35:57;20.20;99.90
12446;DHT22;6287;50.984;7.022;2023-07-09T04:38:27;20.30;99.90
12446;DHT22;6287;50.984;7.022;2023-07-09T04:40:53;20.30;99.90
12446;DHT22;6287;50.984;7.022;2023-07-09T04:43:21;20.40;99.90
12446;DHT22;6287;50.984;7.022;2023-07-09T04:45:47;20.40;99.90
12446;DHT22;6287;50.984;7.022;2023-07-09T04:48:13;20.50;99.90
12446;DHT22;6287;50.984;7.022;2023-07-09T04:50:38;20.50;99.90
12446;DHT22;6287;50.984;7.022;2023-07-09T04:53:06;20.60;99.90
12446;DHT22;6287;50.984;7.022;2023-07-09T04:55:31;20.80;99.90
12446;DHT22;6287;50.984;7.022;2023-07-09T04:58:01;20.70;99.90
12446;DHT22;6287;50.984;7.022;2023-07-09T05:00:29;20.70;99.90
12446;DHT22;6287;50.984;7.022;2023-07-09T05:02:57;20.80;99.90
12446;DHT22;6287;50.984;7.022;2023-07-09T05:05:23;20.80;99.90
12446;DHT22;6287;50.984;7.022;2023-07-09T05:07:51;20.90;99.90
12446;DHT22;6287;50.984;7.022;2023-07-09T05:10:19;20.90;99.90
12446;DHT22;6287;50.984;7.022;2023-07-09T05:12:53;21.00;99.90
12446;DHT22;6287;50.984;7.022;2023-07-09T05:15:21;21.00;99.90
12446;DHT22;6287;50.984;7.022;2023-07-09T05:17:47;21.10;99.90
12446;DHT22;6287;50.984;7.022;2023-07-09T05:20:16;21.20;99.90
12446;DHT22;6287;50.984;7.022;2023-07-09T05:22:41;21.30;99.90
12446;DHT22;6287;50.984;7.022;2023-07-09T05:25:07;21.40;99.90
12446;DHT22;6287;50.984;7.022;2023-07-09T05:27:35;21.50;99.90
12446;DHT22;6287;50.984;7.022;2023-07-09T05:30:03;21.60;99.90
12446;DHT22;6287;50.984;7.022;2023-07-09T05:32:30;21.60;99.90
12446;DHT22;6287;50.984;7.022;2023-07-09T05:35:00;21.70;99.90
12446;DHT22;6287;50.984;7.022;2023-07-09T05:37:25;21.80;99.90
12446;DHT22;6287;50.984;7.022;2023-07-09T05:39:53;21.90;99.90
12446;DHT22;6287;50.984;7.022;2023-07-09T05:42:21;22.00;99.90
12446;DHT22;6287;50.984;7.022;2023-07-09T05:44:50;22.10;99.90
12446;DHT22;6287;50.984;7.022;2023-07-09T05:47:16;22.30;99.90
12446;DHT22;6287;50.984;7.022;2023-07-09T05:49:41;22.30;99.90
12446;DHT22;6287;50.984;7.022;2023-07-09T05:52:07;22.40;99.90
12446;DHT22;6287;50.984;7.022;2023-07-09T05:54:37;22.60;99.90
12446;DHT22;6287;50.984;7.022;2023-07-09T05:57:06;22.70;99.90
12446;DHT22;6287;50.984;7.022;2023-07-09T05:59:36;22.90;99.90
12446;DHT22;6287;50.984;7.022;2023-07-09T06:02:02;23.00;99.90
12446;DHT22;6287;50.984;7.022;2023-07-09T06:04:31;23.10;99.90
12446;DHT22;6287;50.984;7.022;2023-07-09T06:06:57;23.20;99.90
12446;DHT22;6287;50.984;7.022;2023-07-09T06:09:27;23.30;99.90
12446;DHT22;6287;50.984;7.022;2023-07-09T06:11:52;23.40;99.90
12446;DHT22;6287;50.984;7.022;2023-07-09T06:14:18;23.50;99.90
12446;DHT22;6287;50.984;7.022;2023-07-09T06:16:46;23.60;99.90
12446;DHT22;6287;50.984;7.022;2023-07-09T06:19:14;23.80;99.90
12446;DHT22;6287;50.984;7.022;2023-07-09T06:21:40;23.90;99.90
12446;DHT22;6287;50.984;7.022;2023-07-09T06:24:08;24.10;99.90
12446;DHT22;6287;50.984;7.022;2023-07-09T06:26:34;24.20;99.90
12446;DHT22;6287;50.984;7.022;2023-07-09T06:29:00;24.30;99.90
12446;DHT22;6287;50.984;7.022;2023-07-09T06:31:27;24.50;99.90
12446;DHT22;6287;50.984;7.022;2023-07-09T06:33:58;24.70;99.90
12446;DHT22;6287;50.984;7.022;2023-07-09T06:36:28;24.90;99.90
12446;DHT22;6287;50.984;7.022;2023-07-09T06:38:54;25.00;99.90
12446;DHT22;6287;50.984;7.022;2023-07-09T06:41:21;25.10;99.90
12446;DHT22;6287;50.984;7.022;2023-07-09T06:43:49;25.30;99.90
12446;DHT22;6287;50.984;7.022;2023-07-09T06:46:15;25.50;99.90
12446;DHT22;6287;50.984;7.022;2023-07-09T06:48:41;25.60;99.90
12446;DHT22;6287;50.984;7.022;2023-07-09T06:51:11;25.80;99.90
12446;DHT22;6287;50.984;7.022;2023-07-09T06:53:37;25.90;99.90
12446;DHT22;6287;50.984;7.022;2023-07-09T06:56:05;26.10;99.90
12446;DHT22;6287;50.984;7.022;2023-07-09T06:58:33;26.20;99.90
12446;DHT22;6287;50.984;7.022;2023-07-09T07:01:03;26.40;99.90
12446;DHT22;6287;50.984;7.022;2023-07-09T07:03:30;26.50;99.90
12446;DHT22;6287;50.984;7.022;2023-07-09T07:05:55;26.70;99.90
12446;DHT22;6287;50.984;7.022;2023-07-09T07:08:25;26.80;99.90
12446;DHT22;6287;50.984;7.022;2023-07-09T07:10:56;26.90;99.90
12446;DHT22;6287;50.984;7.022;2023-07-09T07:13:38;27.00;99.90
12446;DHT22;6287;50.984;7.022;2023-07-09T07:16:06;27.10;99.90
12446;DHT22;6287;50.984;7.022;2023-07-09T07:18:35;27.20;99.90
12446;DHT22;6287;50.984;7.022;2023-07-09T07:21:03;27.30;99.90
12446;DHT22;6287;50.984;7.022;2023-07-09T07:23:29;27.40;99.90
12446;DHT22;6287;50.984;7.022;2023-07-09T07:25:55;27.50;99.90
12446;DHT22;6287;50.984;7.022;2023-07-09T07:28:20;27.60;99.90
12446;DHT22;6287;50.984;7.022;2023-07-09T07:31:04;27.70;99.90
12446;DHT22;6287;50.984;7.022;2023-07-09T07:33:32;27.90;99.90
12446;DHT22;6287;50.984;7.022;2023-07-09T07:35:58;28.10;99.90
12446;DHT22;6287;50.984;7.022;2023-07-09T07:38:23;28.30;99.90
12446;DHT22;6287;50.984;7.022;2023-07-09T07:40:54;28.40;99.90
12446;DHT22;6287;50.984;7.022;2023-07-09T07:43:19;28.60;99.90
12446;DHT22;6287;50.984;7.022;2023-07-09T07:45:45;28.70;99.90
12446;DHT22;6287;50.984;7.022;2023-07-09T07:48:12;28.80;99.90
12446;DHT22;6287;50.984;7.022;2023-07-09T07:50:45;28.90;99.90
12446;DHT22;6287;50.984;7.022;2023-07-09T07:53:11;29.00;99.90
12446;DHT22;6287;50.984;7.022;2023-07-09T07:55:37;29.20;99.90
12446;DHT22;6287;50.984;7.022;2023-07-09T07:58:03;29.30;99.90
12446;DHT22;6287;50.984;7.022;2023-07-09T08:00:30;29.50;99.90
12446;DHT22;6287;50.984;7.022;2023-07-09T08:02:58;29.60;99.90
12446;DHT22;6287;50.984;7.022;2023-07-09T08:05:26;29.80;99.90
12446;DHT22;6287;50.984;7.022;2023-07-09T08:07:54;30.00;99.90
12446;DHT22;6287;50.984;7.022;2023-07-09T08:10:19;30.10;99.90
12446;DHT22;6287;50.984;7.022;2023-07-09T08:12:45;30.20;99.90
12446;DHT22;6287;50.984;7.022;2023-07-09T08:15:11;30.50;99.90
12446;DHT22;6287;50.984;7.022;2023-07-09T08:17:39;30.60;99.90
12446;DHT22;6287;50.984;7.022;2023-07-09T08:20:07;30.80;99.90
12446;DHT22;6287;50.984;7.022;2023-07-09T08:22:35;30.90;99.90
12446;DHT22;6287;50.984;7.022;2023-07-09T08:25:03;31.10;99.90
12446;DHT22;6287;50.984;7.022;2023-07-09T08:27:31;31.20;99.90
12446;DHT22;6287;50.984;7.022;2023-07-09T08:29:59;31.40;99.90
12446;DHT22;6287;50.984;7.022;2023-07-09T08:32:25;31.40;99.80
12446;DHT22;6287;50.984;7.022;2023-07-09T08:34:50;31.60;99.00
12446;DHT22;6287;50.984;7.022;2023-07-09T08:39:47;31.70;98.10
12446;DHT22;6287;50.984;7.022;2023-07-09T08:42:23;31.80;97.20
12446;DHT22;6287;50.984;7.022;2023-07-09T08:45:16;32.00;97.40
12446;DHT22;6287;50.984;7.022;2023-07-09T08:50:39;32.20;99.90
12446;DHT22;6287;50.984;7.022;2023-07-09T08:53:17;32.30;97.00
12446;DHT22;6287;50.984;7.022;2023-07-09T08:55:47;32.70;99.50
12446;DHT22;6287;50.984;7.022;2023-07-09T08:58:34;32.90;94.60
12446;DHT22;6287;50.984;7.022;2023-07-09T09:01:05;32.90;94.60
12446;DHT22;6287;50.984;7.022;2023-07-09T09:04:05;33.20;93.80
12446;DHT22;6287;50.984;7.022;2023-07-09T09:06:36;33.20;93.00
12446;DHT22;6287;50.984;7.022;2023-07-09T09:17:02;33.40;93.00
12446;DHT22;6287;50.984;7.022;2023-07-09T09:19:43;33.80;92.20
12446;DHT22;6287;50.984;7.022;2023-07-09T09:22:12;33.80;92.60
12446;DHT22;6287;50.984;7.022;2023-07-09T09:25:01;34.20;91.50
12446;DHT22;6287;50.984;7.022;2023-07-09T09:27:31;34.20;91.30
12446;DHT22;6287;50.984;7.022;2023-07-09T09:30:03;34.40;90.60
12446;DHT22;6287;50.984;7.022;2023-07-09T09:32:37;34.60;86.10
12446;DHT22;6287;50.984;7.022;2023-07-09T09:35:17;34.60;85.70
12446;DHT22;6287;50.984;7.022;2023-07-09T09:37:52;34.60;86.10
12446;DHT22;6287;50.984;7.022;2023-07-09T09:40:21;34.70;84.40
12446;DHT22;6287;50.984;7.022;2023-07-09T09:42:51;34.70;85.20
12446;DHT22;6287;50.984;7.022;2023-07-09T09:45:21;34.80;83.70
12446;DHT22;6287;50.984;7.022;2023-07-09T09:47:48;34.90;84.50
12446;DHT22;6287;50.984;7.022;2023-07-09T09:50:21;35.00;83.10
12446;DHT22;6287;50.984;7.022;2023-07-09T09:52:48;35.10;84.30
12446;DHT22;6287;50.984;7.022;2023-07-09T09:55:23;35.20;82.20
12446;DHT22;6287;50.984;7.022;2023-07-09T09:57:53;35.30;82.70
12446;DHT22;6287;50.984;7.022;2023-07-09T10:00:26;35.40;82.50
12446;DHT22;6287;50.984;7.022;2023-07-09T10:03:02;35.40;80.50
12446;DHT22;6287;50.984;7.022;2023-07-09T10:05:37;35.40;81.30
12446;DHT22;6287;50.984;7.022;2023-07-09T10:13:55;36.10;78.80
12446;DHT22;6287;50.984;7.022;2023-07-09T10:16:41;36.10;78.50
12446;DHT22;6287;50.984;7.022;2023-07-09T10:19:31;36.20;77.50
12446;DHT22;6287;50.984;7.022;2023-07-09T10:22:03;36.30;76.50
12446;DHT22;6287;50.984;7.022;2023-07-09T10:24:36;36.60;75.50
12446;DHT22;6287;50.984;7.022;2023-07-09T10:29:48;36.90;74.40
12446;DHT22;6287;50.984;7.022;2023-07-09T10:40:17;37.50;71.40
12446;DHT22;6287;50.984;7.022;2023-07-09T10:42:54;37.60;71.10
12446;DHT22;6287;50.984;7.022;2023-07-09T10:45:36;37.60;69.60
12446;DHT22;6287;50.984;7.022;2023-07-09T10:48:14;37.70;69.20
12446;DHT22;6287;50.984;7.022;2023-07-09T10:50:47;37.90;67.40
12446;DHT22;6287;50.984;7.022;2023-07-09T10:53:33;38.00;67.90
12446;DHT22;6287;50.984;7.022;2023-07-09T10:56:07;38.10;66.90
12446;DHT22;6287;50.984;7.022;2023-07-09T10:58:49;38.30;65.60
12446;DHT22;6287;50.984;7.022;2023-07-09T11:01:27;38.50;65.00
12446;DHT22;6287;50.984;7.022;2023-07-09T11:03:59;38.70;66.60
12446;DHT22;6287;50.984;7.022;2023-07-09T11:06:41;38.80;64.20
12446;DHT22;6287;50.984;7.022;2023-07-09T11:11:55;39.10;64.50
12446;DHT22;6287;50.984;7.022;2023-07-09T11:14:30;39.20;62.70
12446;DHT22;6287;50.984;7.022;2023-07-09T11:17:00;39.10;62.30
12446;DHT22;6287;50.984;7.022;2023-07-09T11:19:31;39.20;62.70
12446;DHT22;6287;50.984;7.022;2023-07-09T11:21:59;39.30;62.50
12446;DHT22;6287;50.984;7.022;2023-07-09T11:24:50;39.40;59.00
12446;DHT22;6287;50.984;7.022;2023-07-09T11:27:27;39.10;58.50
12446;DHT22;6287;50.984;7.022;2023-07-09T11:32:26;39.20;58.00
12446;DHT22;6287;50.984;7.022;2023-07-09T11:34:52;39.10;59.10
12446;DHT22;6287;50.984;7.022;2023-07-09T11:37:20;39.30;58.90
12446;DHT22;6287;50.984;7.022;2023-07-09T11:39:50;39.50;57.80
12446;DHT22;6287;50.984;7.022;2023-07-09T11:45:09;39.80;56.30
12446;DHT22;6287;50.984;7.022;2023-07-09T11:47:43;39.90;56.50
12446;DHT22;6287;50.984;7.022;2023-07-09T11:55:40;40.20;56.10
12446;DHT22;6287;50.984;7.022;2023-07-09T11:58:12;40.20;55.60
12446;DHT22;6287;50.984;7.022;2023-07-09T12:00:40;40.00;55.90
12446;DHT22;6287;50.984;7.022;2023-07-09T12:03:11;39.90;56.60
12446;DHT22;6287;50.984;7.022;2023-07-09T12:05:37;39.90;56.30
12446;DHT22;6287;50.984;7.022;2023-07-09T12:08:06;39.70;56.20
12446;DHT22;6287;50.984;7.022;2023-07-09T12:10:35;39.60;55.50
12446;DHT22;6287;50.984;7.022;2023-07-09T12:13:01;39.60;54.70
12446;DHT22;6287;50.984;7.022;2023-07-09T12:15:32;39.50;56.20
12446;DHT22;6287;50.984;7.022;2023-07-09T12:18:02;39.80;56.20
12446;DHT22;6287;50.984;7.022;2023-07-09T12:20:35;40.20;55.10
12446;DHT22;6287;50.984;7.022;2023-07-09T12:26:14;40.30;53.90
12446;DHT22;6287;50.984;7.022;2023-07-09T12:28:40;40.30;55.20
12446;DHT22;6287;50.984;7.022;2023-07-09T12:31:13;40.30;52.80
12446;DHT22;6287;50.984;7.022;2023-07-09T12:33:52;40.50;53.40
12446;DHT22;6287;50.984;7.022;2023-07-09T12:36:20;40.70;54.10
12446;DHT22;6287;50.984;7.022;2023-07-09T12:38:49;40.90;53.70
12446;DHT22;6287;50.984;7.022;2023-07-09T12:41:28;40.80;53.80
12446;DHT22;6287;50.984;7.022;2023-07-09T12:43:54;40.50;54.10
12446;DHT22;6287;50.984;7.022;2023-07-09T12:46:22;40.20;52.10
12446;DHT22;6287;50.984;7.022;2023-07-09T12:48:48;39.80;51.80
12446;DHT22;6287;50.984;7.022;2023-07-09T12:51:18;39.30;52.70
12446;DHT22;6287;50.984;7.022;2023-07-09T12:54:11;38.80;52.10
12446;DHT22;6287;50.984;7.022;2023-07-09T12:56:38;38.30;52.70
12446;DHT22;6287;50.984;7.022;2023-07-09T12:59:28;37.90;55.30
12446;DHT22;6287;50.984;7.022;2023-07-09T13:02:06;37.50;65.80
12446;DHT22;6287;50.984;7.022;2023-07-09T13:04:37;37.00;79.50
12446;DHT22;6287;50.984;7.022;2023-07-09T13:09:54;36.40;80.00
12446;DHT22;6287;50.984;7.022;2023-07-09T13:12:21;36.30;79.50
12446;DHT22;6287;50.984;7.022;2023-07-09T13:14:55;36.30;78.50
12446;DHT22;6287;50.984;7.022;2023-07-09T13:17:29;36.20;77.70
12446;DHT22;6287;50.984;7.022;2023-07-09T13:19:57;36.20;79.70
12446;DHT22;6287;50.984;7.022;2023-07-09T13:22:23;36.10;75.60
12446;DHT22;6287;50.984;7.022;2023-07-09T13:24:51;36.10;74.40
12446;DHT22;6287;50.984;7.022;2023-07-09T13:27:19;36.00;68.20
12446;DHT22;6287;50.984;7.022;2023-07-09T13:29:47;35.80;64.20
12446;DHT22;6287;50.984;7.022;2023-07-09T13:32:16;35.70;64.10
12446;DHT22;6287;50.984;7.022;2023-07-09T13:34:45;35.70;64.90
12446;DHT22;6287;50.984;7.022;2023-07-09T13:37:15;35.50;64.90
12446;DHT22;6287;50.984;7.022;2023-07-09T13:39:42;35.40;67.30
12446;DHT22;6287;50.984;7.022;2023-07-09T13:42:17;35.30;73.60
12446;DHT22;6287;50.984;7.022;2023-07-09T13:44:49;35.10;70.30
12446;DHT22;6287;50.984;7.022;2023-07-09T13:47:17;34.90;69.70
12446;DHT22;6287;50.984;7.022;2023-07-09T13:49:49;34.80;69.80
12446;DHT22;6287;50.984;7.022;2023-07-09T13:52:24;34.80;72.20
12446;DHT22;6287;50.984;7.022;2023-07-09T13:54:53;34.70;76.90
12446;DHT22;6287;50.984;7.022;2023-07-09T13:57:24;34.50;86.10
12446;DHT22;6287;50.984;7.022;2023-07-09T13:59:52;34.30;92.70
12446;DHT22;6287;50.984;7.022;2023-07-09T14:04:43;33.50;99.50
12446;DHT22;6287;50.984;7.022;2023-07-09T14:07:30;32.30;99.70
12446;DHT22;6287;50.984;7.022;2023-07-09T14:09:57;31.10;99.90
12446;DHT22;6287;50.984;7.022;2023-07-09T14:12:26;30.30;99.90
12446;DHT22;6287;50.984;7.022;2023-07-09T14:14:57;29.40;99.90
12446;DHT22;6287;50.984;7.022;2023-07-09T14:17:24;26.80;99.90
12446;DHT22;6287;50.984;7.022;2023-07-09T14:19:56;28.80;99.90
12446;DHT22;6287;50.984;7.022;2023-07-09T14:22:34;28.60;99.90
12446;DHT22;6287;50.984;7.022;2023-07-09T14:25:03;28.20;99.90
12446;DHT22;6287;50.984;7.022;2023-07-09T14:27:32;27.80;99.90
12446;DHT22;6287;50.984;7.022;2023-07-09T14:29:57;27.60;99.90
12446;DHT22;6287;50.984;7.022;2023-07-09T14:32:39;27.40;99.90
12446;DHT22;6287;50.984;7.022;2023-07-09T14:35:19;27.30;99.90
12446;DHT22;6287;50.984;7.022;2023-07-09T14:37:49;27.20;99.90
12446;DHT22;6287;50.984;7.022;2023-07-09T14:40:16;27.00;99.90
12446;DHT22;6287;50.984;7.022;2023-07-09T14:42:43;26.70;99.90
12446;DHT22;6287;50.984;7.022;2023-07-09T14:45:23;26.50;99.90
12446;DHT22;6287;50.984;7.022;2023-07-09T14:47:54;26.40;99.90
12446;DHT22;6287;50.984;7.022;2023-07-09T14:50:27;26.20;99.90
12446;DHT22;6287;50.984;7.022;2023-07-09T14:52:52;26.20;99.90
12446;DHT22;6287;50.984;7.022;2023-07-09T14:55:22;26.20;99.90
12446;DHT22;6287;50.984;7.022;2023-07-09T14:57:52;26.10;99.90
12446;DHT22;6287;50.984;7.022;2023-07-09T15:00:22;25.80;99.90
12446;DHT22;6287;50.984;7.022;2023-07-09T15:02:51;25.40;99.90
12446;DHT22;6287;50.984;7.022;2023-07-09T15:05:23;25.10;99.90
12446;DHT22;6287;50.984;7.022;2023-07-09T15:07:52;25.10;99.90
12446;DHT22;6287;50.984;7.022;2023-07-09T15:10:27;25.10;99.90
12446;DHT22;6287;50.984;7.022;2023-07-09T15:12:53;25.10;99.90
12446;DHT22;6287;50.984;7.022;2023-07-09T15:15:28;25.30;99.90
12446;DHT22;6287;50.984;7.022;2023-07-09T15:17:56;25.20;99.90
12446;DHT22;6287;50.984;7.022;2023-07-09T15:20:23;25.20;99.90
12446;DHT22;6287;50.984;7.022;2023-07-09T15:22:50;25.20;99.90
12446;DHT22;6287;50.984;7.022;2023-07-09T15:25:21;25.10;99.90
12446;DHT22;6287;50.984;7.022;2023-07-09T15:27:50;25.10;99.90
12446;DHT22;6287;50.984;7.022;2023-07-09T15:30:27;25.10;99.90
12446;DHT22;6287;50.984;7.022;2023-07-09T15:32:56;25.30;99.90
12446;DHT22;6287;50.984;7.022;2023-07-09T15:35:23;25.50;99.90
12446;DHT22;6287;50.984;7.022;2023-07-09T15:37:49;25.50;99.90
12446;DHT22;6287;50.984;7.022;2023-07-09T15:42:56;25.70;99.90
12446;DHT22;6287;50.984;7.022;2023-07-09T15:45:24;25.70;99.90
12446;DHT22;6287;50.984;7.022;2023-07-09T15:47:51;25.70;99.90
12446;DHT22;6287;50.984;7.022;2023-07-09T15:50:29;25.60;99.90
12446;DHT22;6287;50.984;7.022;2023-07-09T15:52:55;25.70;99.90
12446;DHT22;6287;50.984;7.022;2023-07-09T15:55:28;25.80;99.90
12446;DHT22;6287;50.984;7.022;2023-07-09T15:57:55;25.90;99.90
12446;DHT22;6287;50.984;7.022;2023-07-09T16:00:28;26.00;99.90
12446;DHT22;6287;50.984;7.022;2023-07-09T16:02:55;26.00;99.90
12446;DHT22;6287;50.984;7.022;2023-07-09T16:05:24;26.20;99.90
12446;DHT22;6287;50.984;7.022;2023-07-09T16:07:56;26.20;99.90
12446;DHT22;6287;50.984;7.022;2023-07-09T16:10:24;26.20;99.90
12446;DHT22;6287;50.984;7.022;2023-07-09T16:12:51;26.30;99.90
12446;DHT22;6287;50.984;7.022;2023-07-09T16:15:18;26.30;99.90
12446;DHT22;6287;50.984;7.022;2023-07-09T16:17:47;26.30;99.90
12446;DHT22;6287;50.984;7.022;2023-07-09T16:20:16;26.40;99.90
12446;DHT22;6287;50.984;7.022;2023-07-09T16:22:47;26.40;99.90
12446;DHT22;6287;50.984;7.022;2023-07-09T16:25:22;26.40;99.90
12446;DHT22;6287;50.984;7.022;2023-07-09T16:27:53;26.50;99.90
12446;DHT22;6287;50.984;7.022;2023-07-09T16:30:21;26.40;99.90
12446;DHT22;6287;50.984;7.022;2023-07-09T16:32:50;26.30;99.90
12446;DHT22;6287;50.984;7.022;2023-07-09T16:35:22;26.20;99.90
12446;DHT22;6287;50.984;7.022;2023-07-09T16:37:53;26.10;99.90
12446;DHT22;6287;50.984;7.022;2023-07-09T16:40:22;25.90;99.90
12446;DHT22;6287;50.984;7.022;2023-07-09T16:42:49;26.00;99.90
12446;DHT22;6287;50.984;7.022;2023-07-09T16:45:20;25.90;99.90
12446;DHT22;6287;50.984;7.022;2023-07-09T16:47:46;25.80;99.90
12446;DHT22;6287;50.984;7.022;2023-07-09T16:50:24;25.80;99.90
12446;DHT22;6287;50.984;7.022;2023-07-09T16:52:51;25.80;99.90
12446;DHT22;6287;50.984;7.022;2023-07-09T16:55:25;25.80;99.90
12446;DHT22;6287;50.984;7.022;2023-07-09T16:57:58;25.70;99.90